Time;durP1;ratioP1;P1;durP2;ratioP2;P2;SDS_P1;SDS_P2;PMS_P1;PMS_P2;Temp;Humidity;BMP_temperature;BMP_pressure;BME280_temperature;BME280_humidity;BME280_pressure;Samples;Min_cycle;Max_cycle;Signal;HPM_P1;HPM_P2
2022/03/19 00:00:13;;;;;;;;;;;3.60;99.90;;;;;;4795815;29;19921;-82
2022/03/19 00:02:38;;;;;;;;;;;3.60;99.90;;;;;;4813653;29;19920;-82
2022/03/19 00:05:04;;;;;;;;;;;3.60;99.90;;;;;;4798764;29;19936;-82
2022/03/19 00:07:30;;;;;;;;;;;3.60;99.90;;;;;;4797753;29;20031;-82
2022/03/19 00:09:56;;;;;;;;;;;3.60;99.90;;;;;;4785868;29;19921;-82
2022/03/19 00:12:22;;;;;;;;;;;3.60;99.90;;;;;;4798289;29;19921;-82
2022/03/19 00:14:47;;;;;;;;;;;3.50;99.90;;;;;;4813774;29;19932;-81
2022/03/19 00:17:12;;;;;;;;;;;3.50;99.90;;;;;;4798250;29;19932;-81
2022/03/19 00:19:39;;;;;;;;;;;3.50;99.90;;;;;;4798158;29;19959;-82
2022/03/19 00:22:05;;;;;;;;;;;3.40;99.90;;;;;;4813956;29;19931;-82
2022/03/19 00:24:30;;;;;;;;;;;3.40;99.90;;;;;;4815287;29;19979;-81
2022/03/19 00:26:56;;;;;;;;;;;3.30;99.90;;;;;;4795218;29;19925;-82
2022/03/19 00:29:21;;;;;;;;;;;3.30;99.90;;;;;;4813109;29;20003;-82
2022/03/19 00:31:47;;;;;;;;;;;3.20;99.90;;;;;;4818380;29;20000;-82
2022/03/19 00:34:13;;;;;;;;;;;3.30;99.90;;;;;;4797905;29;19972;-81
2022/03/19 00:36:38;;;;;;;;;;;3.20;99.90;;;;;;4828681;29;19969;-82
2022/03/19 00:39:04;;;;;;;;;;;3.20;99.90;;;;;;4831738;29;19971;-81
2022/03/19 00:41:29;;;;;;;;;;;3.20;99.90;;;;;;4798695;29;19927;-81
2022/03/19 00:43:55;;;;;;;;;;;3.20;99.90;;;;;;4798158;29;20070;-81
2022/03/19 00:46:20;;;;;;;;;;;3.20;99.90;;;;;;4798067;29;20335;-81
2022/03/19 00:48:46;;;;;;;;;;;3.20;99.90;;;;;;4798502;29;19921;-82
2022/03/19 00:51:12;;;;;;;;;;;3.20;99.90;;;;;;4798461;29;20304;-82
2022/03/19 00:53:37;;;;;;;;;;;3.20;99.90;;;;;;4797795;29;19920;-81
2022/03/19 00:56:03;;;;;;;;;;;3.20;99.90;;;;;;4823376;29;19925;-81
2022/03/19 00:58:28;;;;;;;;;;;3.10;99.90;;;;;;4815696;29;19921;-81
2022/03/19 01:00:54;;;;;;;;;;;3.10;99.90;;;;;;4817032;29;20191;-81
2022/03/19 01:03:20;;;;;;;;;;;3.10;99.90;;;;;;4816356;29;19951;-81
2022/03/19 01:05:45;;;;;;;;;;;3.10;99.90;;;;;;4815899;29;19960;-81
2022/03/19 01:08:14;;;;;;;;;;;3.10;99.90;;;;;;4809615;29;19974;-81
2022/03/19 01:10:40;;;;;;;;;;;3.00;99.90;;;;;;4801936;29;19968;-81
2022/03/19 01:13:06;;;;;;;;;;;3.10;99.90;;;;;;4800285;29;19932;-80
2022/03/19 01:15:31;;;;;;;;;;;3.00;99.90;;;;;;4815833;29;19921;-81
2022/03/19 01:17:57;;;;;;;;;;;3.10;99.90;;;;;;4815721;29;19968;-81
2022/03/19 01:20:24;;;;;;;;;;;3.10;99.90;;;;;;4800742;29;19928;-81
2022/03/19 01:22:50;;;;;;;;;;;3.10;99.90;;;;;;4815667;29;20399;-81
2022/03/19 01:25:17;;;;;;;;;;;3.10;99.90;;;;;;4803183;29;20033;-82
2022/03/19 01:27:43;;;;;;;;;;;3.10;99.90;;;;;;4801281;29;19929;-81
2022/03/19 01:30:11;;;;;;;;;;;3.20;99.90;;;;;;4816074;29;19928;-81
2022/03/19 01:32:37;;;;;;;;;;;3.20;99.90;;;;;;4815318;29;19921;-81
2022/03/19 01:35:03;;;;;;;;;;;3.20;99.90;;;;;;4795086;29;19936;-81
2022/03/19 01:37:28;;;;;;;;;;;3.20;99.90;;;;;;4798885;29;20015;-81
2022/03/19 01:39:55;;;;;;;;;;;3.30;99.90;;;;;;4808285;29;19921;-81
2022/03/19 01:42:28;;;;;;;;;;;3.20;99.90;;;;;;4801136;29;19921;-81
2022/03/19 01:44:55;;;;;;;;;;;3.30;99.90;;;;;;4800845;29;19921;-80
2022/03/19 01:47:21;;;;;;;;;;;3.30;99.90;;;;;;4800568;29;19928;-81
2022/03/19 01:49:46;;;;;;;;;;;3.30;99.90;;;;;;4800902;29;19921;-80
2022/03/19 01:52:12;;;;;;;;;;;3.30;99.90;;;;;;4815449;29;19977;-80
2022/03/19 01:54:39;;;;;;;;;;;3.30;99.90;;;;;;4832361;29;19947;-80
2022/03/19 01:57:05;;;;;;;;;;;3.30;99.90;;;;;;4802098;29;19932;-80
2022/03/19 01:59:32;;;;;;;;;;;3.30;99.90;;;;;;4817219;29;19946;-81
2022/03/19 02:01:58;;;;;;;;;;;3.30;99.90;;;;;;4818013;29;19921;-80
2022/03/19 02:04:24;;;;;;;;;;;3.30;99.90;;;;;;4817123;29;19975;-81
2022/03/19 02:06:49;;;;;;;;;;;3.30;99.90;;;;;;4812739;24;20307;-75
2022/03/19 02:09:15;;;;;;;;;;;3.30;99.90;;;;;;4792821;29;19921;-75
2022/03/19 02:11:40;;;;;;;;;;;3.40;99.90;;;;;;4790847;29;20303;-76
2022/03/19 02:14:06;;;;;;;;;;;3.30;99.90;;;;;;4790739;29;20355;-76
2022/03/19 02:16:32;;;;;;;;;;;3.30;99.90;;;;;;4789096;29;19921;-76
2022/03/19 02:18:58;;;;;;;;;;;3.30;99.90;;;;;;4777460;29;19921;-76
2022/03/19 02:21:23;;;;;;;;;;;3.40;99.90;;;;;;4772780;30;19922;-76
2022/03/19 02:26:44;;;;;;;;;;;3.30;99.90;;;;;;4802523;29;19975;-76
2022/03/19 02:29:09;;;;;;;;;;;3.30;99.90;;;;;;4805255;29;20016;-76
2022/03/19 02:31:38;;;;;;;;;;;3.30;99.90;;;;;;4790488;29;19936;-76
2022/03/19 02:34:03;;;;;;;;;;;3.30;99.90;;;;;;4790473;29;20303;-76
2022/03/19 02:36:29;;;;;;;;;;;3.30;99.90;;;;;;4772305;30;19921;-76
2022/03/19 02:38:54;;;;;;;;;;;3.30;99.90;;;;;;4776259;30;19974;-76
2022/03/19 02:41:19;;;;;;;;;;;3.30;99.90;;;;;;4802742;29;19960;-76
2022/03/19 02:43:48;;;;;;;;;;;3.30;99.90;;;;;;4802405;29;19928;-76
2022/03/19 02:46:14;;;;;;;;;;;3.30;99.90;;;;;;4801904;29;20016;-76
2022/03/19 02:48:39;;;;;;;;;;;3.40;99.90;;;;;;4804218;29;20027;-76
2022/03/19 02:51:08;;;;;;;;;;;3.40;99.90;;;;;;4789800;29;19921;-76
2022/03/19 02:53:33;;;;;;;;;;;3.40;99.90;;;;;;4782689;30;19921;-76
2022/03/19 02:55:59;;;;;;;;;;;3.50;99.90;;;;;;4801917;29;19921;-76
2022/03/19 02:58:25;;;;;;;;;;;3.50;99.90;;;;;;4804969;29;19921;-76
2022/03/19 03:00:50;;;;;;;;;;;3.40;99.90;;;;;;4790294;29;19925;-76
2022/03/19 03:03:16;;;;;;;;;;;3.40;99.90;;;;;;4790281;29;19979;-75
2022/03/19 03:05:41;;;;;;;;;;;3.40;99.90;;;;;;4789537;29;19921;-75
2022/03/19 03:08:07;;;;;;;;;;;3.40;99.90;;;;;;4787533;29;19971;-75
2022/03/19 03:10:33;;;;;;;;;;;3.30;99.90;;;;;;4790087;29;19921;-75
2022/03/19 03:12:59;;;;;;;;;;;3.30;99.90;;;;;;4789864;29;19936;-75
2022/03/19 03:15:24;;;;;;;;;;;3.20;99.90;;;;;;4789610;29;19948;-75
2022/03/19 03:17:50;;;;;;;;;;;3.20;99.90;;;;;;4789190;29;19925;-75
2022/03/19 03:20:15;;;;;;;;;;;3.20;99.90;;;;;;4789679;29;19970;-75
2022/03/19 03:22:44;;;;;;;;;;;3.20;99.90;;;;;;4783859;30;20377;-76
2022/03/19 03:25:10;;;;;;;;;;;3.20;99.90;;;;;;4804622;29;19921;-76
2022/03/19 03:27:36;;;;;;;;;;;3.10;99.90;;;;;;4785304;30;19944;-76
2022/03/19 03:30:02;;;;;;;;;;;3.00;99.90;;;;;;4771535;30;20374;-75
2022/03/19 03:32:27;;;;;;;;;;;2.90;99.90;;;;;;4771823;30;19961;-74
2022/03/19 03:34:53;;;;;;;;;;;2.70;99.90;;;;;;4771400;30;19925;-74
2022/03/19 03:37:19;;;;;;;;;;;2.60;99.90;;;;;;4787652;29;20340;-74
2022/03/19 03:39:45;;;;;;;;;;;2.50;99.90;;;;;;4804108;29;20006;-74
2022/03/19 03:42:10;;;;;;;;;;;2.30;99.90;;;;;;4789379;29;19997;-74
2022/03/19 03:44:39;;;;;;;;;;;2.20;99.90;;;;;;4804552;29;19997;-73
2022/03/19 03:47:05;;;;;;;;;;;2.10;99.90;;;;;;4788667;29;19928;-74
2022/03/19 03:49:30;;;;;;;;;;;2.00;99.90;;;;;;4788880;29;19924;-74
2022/03/19 03:51:56;;;;;;;;;;;1.90;99.90;;;;;;4789571;29;19921;-74
2022/03/19 03:54:22;;;;;;;;;;;1.90;99.90;;;;;;4789433;29;19925;-74
2022/03/19 03:56:47;;;;;;;;;;;1.90;99.90;;;;;;4802492;29;19967;-74
2022/03/19 03:59:13;;;;;;;;;;;1.90;99.90;;;;;;4788675;29;19925;-73
2022/03/19 04:01:38;;;;;;;;;;;1.80;99.90;;;;;;4789202;29;19925;-74
2022/03/19 04:04:04;;;;;;;;;;;1.80;99.90;;;;;;4789182;29;19931;-73
2022/03/19 04:06:29;;;;;;;;;;;1.80;99.90;;;;;;4788432;29;19921;-74
2022/03/19 04:08:55;;;;;;;;;;;1.90;99.90;;;;;;4775305;30;19921;-74
2022/03/19 04:11:20;;;;;;;;;;;1.90;99.90;;;;;;4801401;29;19930;-74
2022/03/19 04:13:46;;;;;;;;;;;2.00;99.90;;;;;;4789121;29;20337;-73
2022/03/19 04:16:11;;;;;;;;;;;2.10;99.90;;;;;;4788867;29;19921;-74
2022/03/19 04:18:37;;;;;;;;;;;2.10;99.90;;;;;;4778758;30;20017;-74
2022/03/19 04:21:03;;;;;;;;;;;2.10;99.90;;;;;;4770939;30;19921;-74
2022/03/19 04:23:28;;;;;;;;;;;2.20;99.90;;;;;;4801020;29;19928;-74
2022/03/19 04:25:54;;;;;;;;;;;2.20;99.90;;;;;;4770807;30;19997;-73
2022/03/19 04:28:19;;;;;;;;;;;2.20;99.90;;;;;;4803974;29;19931;-74
2022/03/19 04:30:45;;;;;;;;;;;2.30;99.90;;;;;;4773217;30;19921;-74
2022/03/19 04:33:10;;;;;;;;;;;2.30;99.90;;;;;;4803310;29;19925;-73
2022/03/19 04:38:21;;;;;;;;;;;2.40;99.90;;;;;;4788521;29;19925;-74
2022/03/19 04:40:47;;;;;;;;;;;2.40;99.90;;;;;;4789316;29;19951;-74
2022/03/19 04:43:13;;;;;;;;;;;2.50;99.90;;;;;;4789309;29;19973;-74
2022/03/19 04:45:39;;;;;;;;;;;2.50;99.90;;;;;;4789232;29;20395;-74
2022/03/19 04:48:05;;;;;;;;;;;2.50;99.90;;;;;;4788153;29;19964;-74
2022/03/19 04:50:30;;;;;;;;;;;2.60;99.90;;;;;;4789510;29;20457;-74
2022/03/19 04:52:56;;;;;;;;;;;2.60;99.90;;;;;;4789519;29;19951;-74
2022/03/19 04:55:22;;;;;;;;;;;2.70;99.90;;;;;;4788820;29;19977;-73
2022/03/19 04:57:48;;;;;;;;;;;2.70;99.90;;;;;;4782848;30;20365;-74
2022/03/19 05:00:14;;;;;;;;;;;2.70;99.90;;;;;;4771766;30;20396;-74
2022/03/19 05:02:39;;;;;;;;;;;2.70;99.90;;;;;;4771578;30;20016;-74
2022/03/19 05:05:05;;;;;;;;;;;2.80;99.90;;;;;;4771730;30;19929;-74
2022/03/19 05:07:35;;;;;;;;;;;2.80;99.90;;;;;;4771521;30;19968;-74
2022/03/19 05:12:45;;;;;;;;;;;2.80;99.90;;;;;;4773030;30;19945;-74
2022/03/19 05:15:12;;;;;;;;;;;2.90;99.90;;;;;;4760050;30;20430;-74
2022/03/19 05:17:38;;;;;;;;;;;2.80;99.90;;;;;;4780748;29;20033;-74
2022/03/19 05:20:04;;;;;;;;;;;2.90;99.90;;;;;;4777344;29;19921;-74
2022/03/19 05:22:29;;;;;;;;;;;2.80;99.90;;;;;;4804426;29;20353;-74
2022/03/19 05:24:55;;;;;;;;;;;2.80;99.90;;;;;;4804724;29;19921;-74
2022/03/19 05:27:22;;;;;;;;;;;2.80;99.90;;;;;;4803964;29;19983;-74
2022/03/19 05:29:48;;;;;;;;;;;2.90;99.90;;;;;;4804292;29;19921;-74
2022/03/19 05:32:13;;;;;;;;;;;2.80;99.90;;;;;;4807419;29;19921;-74
2022/03/19 05:34:40;;;;;;;;;;;2.80;99.90;;;;;;4788341;30;19929;-74
2022/03/19 05:37:05;;;;;;;;;;;2.80;99.90;;;;;;4773981;30;20355;-74
2022/03/19 05:39:32;;;;;;;;;;;2.80;99.90;;;;;;4777076;29;19921;-74
2022/03/19 05:41:57;;;;;;;;;;;2.70;99.90;;;;;;4783438;30;20016;-74
2022/03/19 05:44:23;;;;;;;;;;;2.80;99.90;;;;;;4804115;29;19984;-74
2022/03/19 05:46:49;;;;;;;;;;;2.70;99.90;;;;;;4774110;30;19925;-74
2022/03/19 05:49:15;;;;;;;;;;;2.70;99.90;;;;;;4806908;29;20402;-74
2022/03/19 05:51:40;;;;;;;;;;;2.70;99.90;;;;;;4785808;30;19984;-74
2022/03/19 05:54:06;;;;;;;;;;;2.70;99.90;;;;;;4803871;29;20031;-74
2022/03/19 05:56:32;;;;;;;;;;;2.70;99.90;;;;;;4803561;29;19960;-76
2022/03/19 05:58:58;;;;;;;;;;;2.70;99.90;;;;;;4790359;29;19938;-76
2022/03/19 06:01:27;;;;;;;;;;;2.70;99.90;;;;;;4806642;29;19928;-76
2022/03/19 06:03:54;;;;;;;;;;;2.80;99.90;;;;;;4791896;29;19921;-76
2022/03/19 06:06:19;;;;;;;;;;;2.80;99.90;;;;;;4789962;29;20434;-76
2022/03/19 06:08:44;;;;;;;;;;;2.80;99.90;;;;;;4776845;30;19921;-75
2022/03/19 06:11:10;;;;;;;;;;;2.90;99.90;;;;;;4777030;29;19926;-76
2022/03/19 06:13:35;;;;;;;;;;;2.90;99.90;;;;;;4792290;29;20526;-76
2022/03/19 06:16:01;;;;;;;;;;;3.10;99.90;;;;;;4792165;29;19979;-76
2022/03/19 06:18:26;;;;;;;;;;;3.00;99.90;;;;;;4791887;29;19969;-76
2022/03/19 06:20:52;;;;;;;;;;;3.10;99.90;;;;;;4781903;30;19921;-76
2022/03/19 06:23:17;;;;;;;;;;;3.20;99.90;;;;;;4806831;29;19940;-75
2022/03/19 06:25:43;;;;;;;;;;;3.20;99.90;;;;;;4791819;29;19932;-76
2022/03/19 06:28:08;;;;;;;;;;;3.30;99.90;;;;;;4777781;29;20407;-76
2022/03/19 06:30:37;;;;;;;;;;;3.30;99.90;;;;;;4792365;29;19921;-76
2022/03/19 06:33:06;;;;;;;;;;;3.40;99.90;;;;;;4808301;29;19921;-76
2022/03/19 06:38:16;;;;;;;;;;;3.50;99.90;;;;;;4805084;29;19974;-76
2022/03/19 06:40:41;;;;;;;;;;;3.60;99.90;;;;;;4804954;29;19925;-76
2022/03/19 06:43:07;;;;;;;;;;;3.60;99.90;;;;;;4807586;29;19921;-76
2022/03/19 06:45:32;;;;;;;;;;;3.80;99.90;;;;;;4778150;29;20319;-76
2022/03/19 06:47:58;;;;;;;;;;;3.90;99.90;;;;;;4779341;29;19921;-76
2022/03/19 06:50:23;;;;;;;;;;;4.00;99.90;;;;;;4794606;29;19925;-76
2022/03/19 06:52:49;;;;;;;;;;;4.00;99.90;;;;;;4781477;29;19921;-76
2022/03/19 06:55:14;;;;;;;;;;;4.10;99.90;;;;;;4796493;29;20428;-76
2022/03/19 06:57:40;;;;;;;;;;;4.20;99.90;;;;;;4797066;29;20339;-76
2022/03/19 07:00:06;;;;;;;;;;;4.30;99.90;;;;;;4798760;29;19929;-76
2022/03/19 07:02:31;;;;;;;;;;;4.40;99.90;;;;;;4774652;30;19929;-77
2022/03/19 07:04:57;;;;;;;;;;;4.50;99.90;;;;;;4783024;29;19977;-76
2022/03/19 07:07:22;;;;;;;;;;;4.60;99.90;;;;;;4782219;30;19922;-77
2022/03/19 07:09:49;;;;;;;;;;;4.70;99.90;;;;;;4774674;29;19928;-78
2022/03/19 07:12:15;;;;;;;;;;;4.70;99.90;;;;;;4782843;29;19925;-78
2022/03/19 07:14:40;;;;;;;;;;;4.80;99.90;;;;;;4780004;29;19929;-78
2022/03/19 07:17:07;;;;;;;;;;;4.90;99.90;;;;;;4790870;29;20041;-78
2022/03/19 07:19:32;;;;;;;;;;;5.00;99.90;;;;;;4794760;29;19932;-79
2022/03/19 07:21:58;;;;;;;;;;;5.10;99.90;;;;;;4788207;29;19929;-78
2022/03/19 07:24:24;;;;;;;;;;;5.10;99.90;;;;;;4773128;29;19921;-77
2022/03/19 07:26:49;;;;;;;;;;;5.20;99.90;;;;;;4791311;29;19928;-77
2022/03/19 07:29:18;;;;;;;;;;;5.30;99.90;;;;;;4780487;29;19925;-77
2022/03/19 07:31:44;;;;;;;;;;;5.30;99.90;;;;;;4796300;29;19921;-77
2022/03/19 07:34:10;;;;;;;;;;;5.40;99.90;;;;;;4770616;30;19941;-77
2022/03/19 07:36:35;;;;;;;;;;;5.50;99.90;;;;;;4778637;30;19921;-77
2022/03/19 07:39:01;;;;;;;;;;;5.50;99.90;;;;;;4810599;29;19928;-77
2022/03/19 07:41:48;;;;;;;;;;;5.60;99.90;;;;;;4778011;30;19975;-77
2022/03/19 07:44:13;;;;;;;;;;;5.70;99.90;;;;;;4779665;29;20396;-77
2022/03/19 07:46:41;;;;;;;;;;;5.80;99.90;;;;;;4792275;29;19921;-78
2022/03/19 07:49:07;;;;;;;;;;;5.80;99.90;;;;;;4794760;29;19928;-77
2022/03/19 07:51:33;;;;;;;;;;;5.90;99.90;;;;;;4793330;29;20372;-77
2022/03/19 07:53:59;;;;;;;;;;;6.00;99.90;;;;;;4780014;29;20384;-77
2022/03/19 07:56:24;;;;;;;;;;;6.20;99.90;;;;;;4775938;29;19921;-77
2022/03/19 07:58:50;;;;;;;;;;;6.30;99.90;;;;;;4807766;29;19961;-77
2022/03/19 08:01:16;;;;;;;;;;;6.40;99.90;;;;;;4771699;29;20288;-77
2022/03/19 08:03:42;;;;;;;;;;;6.60;99.90;;;;;;4784475;29;19928;-77
2022/03/19 08:06:07;;;;;;;;;;;6.80;99.90;;;;;;4796219;24;20310;-78
2022/03/19 08:08:34;;;;;;;;;;;7.00;99.90;;;;;;4791620;29;19954;-78
2022/03/19 08:11:00;;;;;;;;;;;7.20;99.90;;;;;;4789855;29;20026;-78
2022/03/19 08:13:25;;;;;;;;;;;7.30;99.90;;;;;;4790259;29;20058;-79
2022/03/19 08:15:51;;;;;;;;;;;7.40;99.90;;;;;;4800931;29;19992;-79
2022/03/19 08:18:16;;;;;;;;;;;7.60;99.90;;;;;;4796618;29;19925;-78
2022/03/19 08:20:44;;;;;;;;;;;7.70;99.90;;;;;;4789661;29;19925;-78
2022/03/19 08:23:09;;;;;;;;;;;7.80;99.90;;;;;;4789457;29;19974;-78
2022/03/19 08:25:35;;;;;;;;;;;7.90;99.90;;;;;;4789282;29;19925;-78
2022/03/19 08:28:00;;;;;;;;;;;8.00;99.90;;;;;;4790319;29;19960;-78
2022/03/19 08:30:26;;;;;;;;;;;8.10;99.90;;;;;;4789137;29;20447;-79
2022/03/19 08:32:51;;;;;;;;;;;8.30;99.90;;;;;;4789376;29;20020;-78
2022/03/19 08:35:17;;;;;;;;;;;8.30;99.90;;;;;;4788651;29;19921;-78
2022/03/19 08:37:42;;;;;;;;;;;8.40;99.90;;;;;;4797097;29;19968;-78
2022/03/19 08:40:17;;;;;;;;;;;8.60;99.90;;;;;;4788766;29;19921;-78
2022/03/19 08:42:51;;;;;;;;;;;8.70;99.90;;;;;;4788857;29;19933;-78
2022/03/19 08:45:18;;;;;;;;;;;8.70;99.90;;;;;;4790621;29;20360;-79
2022/03/19 08:47:43;;;;;;;;;;;8.80;99.90;;;;;;4800400;29;19972;-78
2022/03/19 08:50:09;;;;;;;;;;;8.90;99.90;;;;;;4788684;29;20073;-78
2022/03/19 08:52:36;;;;;;;;;;;9.00;99.90;;;;;;4804749;29;19931;-77
2022/03/19 08:55:02;;;;;;;;;;;9.10;99.90;;;;;;4805050;29;19921;-78
2022/03/19 08:57:27;;;;;;;;;;;9.10;99.90;;;;;;4805978;29;19997;-79
2022/03/19 08:59:53;;;;;;;;;;;9.20;99.90;;;;;;4806629;29;20375;-78
2022/03/19 09:02:18;;;;;;;;;;;9.30;99.90;;;;;;4806304;29;19925;-77
2022/03/19 09:04:44;;;;;;;;;;;9.40;99.90;;;;;;4806379;29;19927;-78
2022/03/19 09:07:10;;;;;;;;;;;9.50;99.90;;;;;;4802706;29;19944;-77
2022/03/19 09:09:35;;;;;;;;;;;9.60;99.90;;;;;;4788291;29;20190;-77
2022/03/19 09:12:01;;;;;;;;;;;9.60;99.90;;;;;;4799730;29;19987;-77
2022/03/19 09:14:27;;;;;;;;;;;9.70;99.90;;;;;;4805834;29;19976;-77
2022/03/19 09:16:53;;;;;;;;;;;9.70;99.90;;;;;;4806220;29;19936;-77
2022/03/19 09:19:18;;;;;;;;;;;9.80;99.90;;;;;;4806288;29;19939;-78
2022/03/19 09:21:44;;;;;;;;;;;9.80;99.90;;;;;;4806136;29;19928;-77
2022/03/19 09:24:10;;;;;;;;;;;9.90;99.90;;;;;;4789755;29;19920;-77
2022/03/19 09:26:35;;;;;;;;;;;9.90;99.90;;;;;;4805932;29;19925;-77
2022/03/19 09:29:01;;;;;;;;;;;10.00;99.90;;;;;;4793617;29;19928;-77
2022/03/19 09:31:27;;;;;;;;;;;10.10;99.90;;;;;;4795385;29;20012;-77
2022/03/19 09:33:53;;;;;;;;;;;10.30;99.90;;;;;;4806133;29;19927;-77
2022/03/19 09:36:18;;;;;;;;;;;10.30;99.90;;;;;;4805986;29;20297;-77
2022/03/19 09:38:44;;;;;;;;;;;10.30;99.90;;;;;;4806102;29;19977;-77
2022/03/19 09:41:10;;;;;;;;;;;10.40;99.90;;;;;;4789497;29;19925;-77
2022/03/19 09:43:35;;;;;;;;;;;10.30;99.90;;;;;;4789194;29;19990;-77
2022/03/19 09:46:02;;;;;;;;;;;10.30;99.90;;;;;;4802304;29;19927;-77
2022/03/19 09:48:27;;;;;;;;;;;10.40;99.90;;;;;;4805894;29;19982;-78
2022/03/19 09:50:54;;;;;;;;;;;10.40;99.90;;;;;;4806011;29;19920;-77
2022/03/19 09:53:20;;;;;;;;;;;10.50;99.90;;;;;;4806139;29;19929;-77
2022/03/19 09:55:46;;;;;;;;;;;10.60;97.30;;;;;;4805461;29;19935;-78
2022/03/19 09:58:13;;;;;;;;;;;10.70;96.80;;;;;;4807853;29;20284;-77
2022/03/19 10:00:38;;;;;;;;;;;10.80;93.80;;;;;;4801348;29;20300;-77
2022/03/19 10:03:07;;;;;;;;;;;10.80;98.00;;;;;;4798114;29;19927;-78
2022/03/19 10:08:36;;;;;;;;;;;10.90;92.90;;;;;;4808625;29;19977;-77
2022/03/19 10:11:05;;;;;;;;;;;11.10;96.50;;;;;;4807620;29;20276;-78
2022/03/19 10:13:31;;;;;;;;;;;11.10;99.20;;;;;;4808883;29;19921;-78
2022/03/19 10:15:56;;;;;;;;;;;11.10;94.40;;;;;;4808629;29;19921;-77
2022/03/19 10:18:29;;;;;;;;;;;11.30;93.80;;;;;;4801928;29;20020;-77
2022/03/19 10:20:55;;;;;;;;;;;11.40;97.70;;;;;;4794657;29;20073;-78
2022/03/19 10:23:31;;;;;;;;;;;11.60;96.90;;;;;;4808719;29;19927;-76
2022/03/19 10:25:56;;;;;;;;;;;11.70;89.50;;;;;;4808374;29;19925;-76
2022/03/19 10:28:28;;;;;;;;;;;11.80;82.90;;;;;;4808529;29;19924;-76
2022/03/19 10:30:53;;;;;;;;;;;12.00;79.20;;;;;;4808513;29;19921;-76
2022/03/19 10:33:22;;;;;;;;;;;12.10;72.00;;;;;;4808569;29;19931;-76
2022/03/19 10:35:48;;;;;;;;;;;12.10;71.20;;;;;;4806525;29;19929;-77
2022/03/19 10:38:23;;;;;;;;;;;12.20;72.60;;;;;;4808409;29;19932;-77
2022/03/19 10:40:51;;;;;;;;;;;12.30;71.60;;;;;;4807819;29;20325;-78
2022/03/19 10:43:18;;;;;;;;;;;12.30;75.00;;;;;;4807826;29;19928;-77
2022/03/19 10:45:44;;;;;;;;;;;12.40;71.40;;;;;;4815729;29;19921;-78
2022/03/19 10:48:12;;;;;;;;;;;12.60;71.00;;;;;;4809560;29;19970;-77
2022/03/19 10:50:41;;;;;;;;;;;12.60;66.30;;;;;;4808648;29;19921;-77
2022/03/19 10:53:07;;;;;;;;;;;12.80;62.40;;;;;;4806603;29;19936;-78
2022/03/19 10:55:32;;;;;;;;;;;12.80;61.40;;;;;;4808372;29;19924;-79
2022/03/19 10:57:58;;;;;;;;;;;12.90;62.10;;;;;;4808169;29;20419;-78
2022/03/19 11:00:24;;;;;;;;;;;12.90;57.20;;;;;;4808448;29;19932;-78
2022/03/19 11:02:49;;;;;;;;;;;12.90;58.70;;;;;;4808023;29;19920;-78
2022/03/19 11:05:19;;;;;;;;;;;13.00;55.70;;;;;;4807956;29;19929;-77
2022/03/19 11:07:45;;;;;;;;;;;13.10;59.10;;;;;;4790833;29;19973;-78
2022/03/19 11:10:11;;;;;;;;;;;13.10;55.40;;;;;;4790380;29;19921;-78
2022/03/19 11:12:40;;;;;;;;;;;13.10;54.20;;;;;;4790777;29;19921;-78
2022/03/19 11:15:07;;;;;;;;;;;13.10;55.90;;;;;;4804853;29;20413;-78
2022/03/19 11:17:36;;;;;;;;;;;13.20;55.70;;;;;;4804489;29;19932;-78
2022/03/19 11:20:04;;;;;;;;;;;13.30;55.10;;;;;;4804902;29;20013;-78
2022/03/19 11:22:39;;;;;;;;;;;13.40;57.50;;;;;;4807025;29;20423;-78
2022/03/19 11:25:13;;;;;;;;;;;13.40;55.20;;;;;;4790065;29;19977;-78
2022/03/19 11:27:41;;;;;;;;;;;13.60;59.30;;;;;;4791717;29;20280;-77
2022/03/19 11:30:17;;;;;;;;;;;13.80;61.30;;;;;;4791912;29;20292;-78
2022/03/19 11:33:01;;;;;;;;;;;13.80;58.00;;;;;;4789980;29;19989;-78
2022/03/19 11:35:27;;;;;;;;;;;14.00;59.20;;;;;;4802215;29;19953;-78
2022/03/19 11:38:00;;;;;;;;;;;14.10;55.00;;;;;;4804746;29;19932;-78
2022/03/19 11:40:28;;;;;;;;;;;14.00;52.70;;;;;;4807262;29;19921;-78
2022/03/19 11:42:55;;;;;;;;;;;13.90;54.20;;;;;;4800849;29;19920;-77
2022/03/19 11:45:20;;;;;;;;;;;13.90;55.80;;;;;;4807323;29;19975;-78
2022/03/19 11:47:46;;;;;;;;;;;13.90;51.50;;;;;;4806937;29;20364;-78
2022/03/19 11:50:17;;;;;;;;;;;13.80;52.80;;;;;;4807211;29;20122;-77
2022/03/19 11:52:44;;;;;;;;;;;14.00;54.10;;;;;;4807467;29;20306;-78
2022/03/19 11:55:10;;;;;;;;;;;14.00;50.40;;;;;;4807207;29;19920;-78
2022/03/19 11:57:45;;;;;;;;;;;14.20;50.20;;;;;;4802053;29;20360;-80
2022/03/19 12:00:12;;;;;;;;;;;14.00;48.10;;;;;;4805518;29;19959;-78
2022/03/19 12:02:56;;;;;;;;;;;14.00;51.20;;;;;;4806868;29;20359;-78
2022/03/19 12:05:26;;;;;;;;;;;14.10;49.90;;;;;;4789028;29;20010;-78
2022/03/19 12:07:54;;;;;;;;;;;14.30;50.50;;;;;;4794149;29;19931;-78
2022/03/19 12:10:24;;;;;;;;;;;14.30;51.30;;;;;;4788895;29;19928;-78
2022/03/19 12:12:50;;;;;;;;;;;14.30;52.30;;;;;;4793840;29;19920;-78
2022/03/19 12:15:31;;;;;;;;;;;14.30;49.80;;;;;;4806881;29;19920;-79
2022/03/19 12:18:15;;;;;;;;;;;14.30;49.30;;;;;;4789612;29;20343;-78
2022/03/19 12:20:43;;;;;;;;;;;14.30;46.00;;;;;;4806792;29;20053;-78
2022/03/19 12:23:11;;;;;;;;;;;14.50;46.60;;;;;;4807012;29;19921;-78
2022/03/19 12:25:41;;;;;;;;;;;14.50;46.60;;;;;;4806834;29;20008;-77
2022/03/19 12:28:07;;;;;;;;;;;14.40;48.00;;;;;;4816794;29;19927;-78
2022/03/19 12:30:35;;;;;;;;;;;14.30;47.70;;;;;;4824917;29;19973;-78
2022/03/19 12:33:00;;;;;;;;;;;14.40;48.40;;;;;;4825134;29;19926;-77
2022/03/19 12:35:37;;;;;;;;;;;14.30;46.50;;;;;;4824789;29;19920;-77
2022/03/19 12:38:03;;;;;;;;;;;14.20;48.50;;;;;;4805645;29;19929;-77
2022/03/19 12:41:23;;;;;;;;;;;14.50;47.60;;;;;;4788721;29;19921;-77
2022/03/19 12:43:15;;;;;;;;;;;14.60;47.20;;;;;;4788399;29;19921;-77
2022/03/19 12:45:48;;;;;;;;;;;14.70;49.60;;;;;;4788272;29;19944;-78
2022/03/19 12:48:15;;;;;;;;;;;14.70;47.80;;;;;;4788733;29;19921;-78
2022/03/19 12:50:47;;;;;;;;;;;14.90;49.10;;;;;;4789775;29;19933;-78
2022/03/19 12:53:12;;;;;;;;;;;15.10;48.30;;;;;;4804776;29;19981;-78
2022/03/19 12:55:38;;;;;;;;;;;15.20;48.70;;;;;;4806180;29;19924;-79
2022/03/19 12:58:03;;;;;;;;;;;15.10;48.70;;;;;;4791455;29;19925;-78
2022/03/19 13:00:29;;;;;;;;;;;15.10;49.30;;;;;;4793583;29;19921;-79
2022/03/19 13:02:55;;;;;;;;;;;15.20;48.60;;;;;;4800238;29;20376;-77
2022/03/19 13:05:21;;;;;;;;;;;15.10;49.60;;;;;;4806846;29;19929;-78
2022/03/19 13:08:07;;;;;;;;;;;15.10;46.40;;;;;;4806616;29;19970;-78
2022/03/19 13:10:42;;;;;;;;;;;15.10;46.30;;;;;;4792903;29;19925;-78
2022/03/19 13:13:09;;;;;;;;;;;15.20;47.50;;;;;;4799397;29;19977;-79
2022/03/19 13:15:34;;;;;;;;;;;15.60;47.20;;;;;;4813499;29;20008;-77
2022/03/19 13:18:00;;;;;;;;;;;15.50;45.50;;;;;;4790828;29;19933;-77
2022/03/19 13:20:26;;;;;;;;;;;15.50;46.50;;;;;;4794763;29;19928;-78
2022/03/19 13:22:59;;;;;;;;;;;15.60;47.10;;;;;;4793341;29;19970;-78
2022/03/19 13:25:25;;;;;;;;;;;15.70;46.70;;;;;;4792707;29;19921;-78
2022/03/19 13:27:50;;;;;;;;;;;15.90;47.10;;;;;;4786154;29;20364;-77
2022/03/19 13:30:16;;;;;;;;;;;16.00;45.50;;;;;;4801172;29;19964;-78
2022/03/19 13:32:43;;;;;;;;;;;16.20;46.50;;;;;;4794585;29;19967;-79
2022/03/19 13:35:09;;;;;;;;;;;16.50;45.80;;;;;;4795760;29;19928;-78
2022/03/19 13:37:35;;;;;;;;;;;16.50;45.30;;;;;;4797822;29;19924;-78
2022/03/19 13:40:02;;;;;;;;;;;16.50;46.50;;;;;;4798787;29;20019;-78
2022/03/19 13:42:29;;;;;;;;;;;16.40;45.20;;;;;;4797732;29;19928;-80
2022/03/19 13:45:00;;;;;;;;;;;16.40;46.70;;;;;;4797394;29;20008;-78
2022/03/19 13:47:33;;;;;;;;;;;16.60;48.00;;;;;;4784455;29;19977;-77
2022/03/19 13:50:00;;;;;;;;;;;16.80;46.00;;;;;;4800611;29;20021;-78
2022/03/19 13:52:28;;;;;;;;;;;16.90;45.40;;;;;;4781275;29;20007;-78
2022/03/19 13:54:55;;;;;;;;;;;16.80;46.60;;;;;;4800757;29;20625;-79
2022/03/19 13:57:21;;;;;;;;;;;16.70;46.20;;;;;;4802312;29;19925;-78
2022/03/19 13:59:46;;;;;;;;;;;16.60;45.80;;;;;;4799028;29;19928;-78
2022/03/19 14:02:12;;;;;;;;;;;16.40;46.60;;;;;;4811877;29;20377;-78
2022/03/19 14:04:37;;;;;;;;;;;16.30;47.30;;;;;;4799794;29;19921;-78
2022/03/19 14:07:04;;;;;;;;;;;16.40;46.70;;;;;;4787204;24;19925;-77
2022/03/19 14:09:29;;;;;;;;;;;16.60;46.10;;;;;;4794693;29;20017;-78
2022/03/19 14:11:55;;;;;;;;;;;16.40;45.30;;;;;;4792200;29;20011;-78
2022/03/19 14:14:20;;;;;;;;;;;16.30;46.50;;;;;;4798062;29;20316;-77
2022/03/19 14:16:53;;;;;;;;;;;16.20;46.80;;;;;;4790409;29;19925;-78
2022/03/19 14:19:19;;;;;;;;;;;16.00;47.50;;;;;;4791017;29;19968;-77
2022/03/19 14:21:44;;;;;;;;;;;16.00;48.30;;;;;;4790643;29;19972;-77
2022/03/19 14:24:10;;;;;;;;;;;16.10;47.60;;;;;;4806881;29;19929;-78
2022/03/19 14:26:35;;;;;;;;;;;16.20;46.60;;;;;;4806079;29;19924;-78
2022/03/19 14:29:01;;;;;;;;;;;16.20;45.50;;;;;;4806807;29;19925;-77
2022/03/19 14:31:26;;;;;;;;;;;16.20;45.30;;;;;;4790609;29;20299;-78
2022/03/19 14:33:51;;;;;;;;;;;16.20;46.20;;;;;;4791643;29;20024;-77
2022/03/19 14:36:17;;;;;;;;;;;16.00;45.60;;;;;;4807314;29;19925;-78